createdAt,value
2022-09-16T00:00:20.008Z,13.80
2022-09-16T00:02:46.720Z,13.80
2022-09-16T00:05:13.441Z,13.80
2022-09-16T00:07:39.673Z,13.80
2022-09-16T00:10:06.823Z,13.80
2022-09-16T00:12:33.013Z,13.80
2022-09-16T00:14:59.213Z,13.80
2022-09-16T00:17:25.626Z,13.70
2022-09-16T00:19:52.141Z,13.80
2022-09-16T00:22:18.359Z,13.70
2022-09-16T00:24:44.553Z,13.80
2022-09-16T00:27:11.223Z,13.70
2022-09-16T00:29:37.453Z,13.70
2022-09-16T00:32:04.261Z,13.70
2022-09-16T00:34:30.447Z,13.60
2022-09-16T00:36:57.269Z,13.60
2022-09-16T00:39:23.848Z,13.60
2022-09-16T00:41:50.137Z,13.70
2022-09-16T00:44:51.889Z,13.70
2022-09-16T00:47:20.877Z,13.70
2022-09-16T00:49:49.562Z,13.80
2022-09-16T00:52:15.779Z,13.80
2022-09-16T00:54:42.038Z,13.80
2022-09-16T00:57:09.390Z,13.70
2022-09-16T00:59:37.236Z,13.70
2022-09-16T01:02:07.509Z,13.70
2022-09-16T01:04:43.923Z,13.80
2022-09-16T01:07:11.324Z,13.80
2022-09-16T01:09:37.708Z,13.80
2022-09-16T01:12:23.967Z,13.80
2022-09-16T01:14:53.205Z,14.70
2022-09-16T01:18:59.443Z,13.80
2022-09-16T01:21:41.597Z,13.90
2022-09-16T01:24:32.101Z,13.90
2022-09-16T01:27:28.225Z,14.00
2022-09-16T01:32:30.477Z,13.90
2022-09-16T01:39:07.622Z,13.90
2022-09-16T01:44:25.659Z,13.90
2022-09-16T01:48:29.318Z,13.90
2022-09-16T01:51:04.497Z,13.90
2022-09-16T01:53:40.757Z,13.90
2022-09-16T02:03:01.914Z,13.90
2022-09-16T02:05:39.033Z,13.80
2022-09-16T02:08:08.088Z,13.90
2022-09-16T02:11:19.684Z,13.90
2022-09-16T02:13:51.616Z,13.90
2022-09-16T02:16:34.852Z,13.90
2022-09-16T02:19:05.954Z,13.90
2022-09-16T02:21:33.184Z,13.90
2022-09-16T02:24:01.734Z,13.80
2022-09-16T02:26:30.468Z,13.80
2022-09-16T02:28:56.655Z,13.90
2022-09-16T02:31:26.211Z,13.80
2022-09-16T02:34:54.143Z,13.80
2022-09-16T02:37:59.377Z,13.80
2022-09-16T02:40:46.597Z,13.90
2022-09-16T02:43:13.046Z,15.40
2022-09-16T02:46:05.599Z,13.80
2022-09-16T02:53:51.434Z,13.80
2022-09-16T02:56:34.539Z,13.80
2022-09-16T02:59:01.476Z,13.90
2022-09-16T03:01:29.769Z,13.90
2022-09-16T03:03:56.167Z,13.90
2022-09-16T03:06:24.670Z,13.90
2022-09-16T03:08:51.647Z,13.90
2022-09-16T03:14:37.402Z,14.00
2022-09-16T03:17:24.424Z,13.90
2022-09-16T03:21:43.173Z,13.90
2022-09-16T03:24:27.033Z,13.90
2022-09-16T03:27:16.414Z,13.90
2022-09-16T03:30:06.003Z,13.90
2022-09-16T03:32:54.712Z,13.90
2022-09-16T03:35:42.645Z,13.90
2022-09-16T03:38:09.702Z,13.70
2022-09-16T03:40:35.927Z,13.60
2022-09-16T03:43:09.851Z,13.60
2022-09-16T03:45:36.361Z,13.50
2022-09-16T03:48:04.243Z,13.40
2022-09-16T03:50:30.457Z,13.40
2022-09-16T03:52:57.626Z,13.30
2022-09-16T03:55:23.788Z,13.30
2022-09-16T03:57:52.005Z,13.30
2022-09-16T04:00:18.162Z,13.20
2022-09-16T04:02:44.560Z,13.20
2022-09-16T04:05:11.498Z,13.20
2022-09-16T04:07:37.713Z,13.20
2022-09-16T04:10:04.997Z,13.20
2022-09-16T04:12:37.034Z,13.20
2022-09-16T04:15:04.643Z,13.20
2022-09-16T04:17:31.878Z,13.20
2022-09-16T04:19:58.088Z,13.20
2022-09-16T04:22:24.692Z,13.30
2022-09-16T04:24:51.996Z,13.30
2022-09-16T04:27:18.959Z,13.30
2022-09-16T04:29:45.255Z,13.40
2022-09-16T04:32:11.420Z,13.40
2022-09-16T04:34:37.629Z,13.40
2022-09-16T04:37:04.044Z,13.40
2022-09-16T04:39:30.567Z,13.30
2022-09-16T04:41:56.774Z,13.20
2022-09-16T04:44:23.164Z,13.00
2022-09-16T04:46:49.457Z,13.00
2022-09-16T04:49:15.783Z,12.80
2022-09-16T04:51:41.958Z,12.70
2022-09-16T04:54:08.961Z,12.70
2022-09-16T04:56:35.183Z,12.60
2022-09-16T04:59:03.051Z,12.60
2022-09-16T05:01:33.905Z,12.60
2022-09-16T05:04:02.357Z,12.50
2022-09-16T05:06:39.858Z,12.50
2022-09-16T05:09:06.148Z,12.50
2022-09-16T05:11:34.444Z,12.60
2022-09-16T05:14:01.161Z,12.50
2022-09-16T05:16:27.816Z,12.50
2022-09-16T05:18:55.401Z,12.50
2022-09-16T05:21:22.438Z,12.50
2022-09-16T05:23:48.807Z,12.50
2022-09-16T05:26:19.957Z,12.50
2022-09-16T05:28:46.454Z,12.60
2022-09-16T05:31:26.745Z,12.70
2022-09-16T05:34:01.421Z,13.50
2022-09-16T05:36:29.022Z,12.80
2022-09-16T05:39:21.022Z,12.80
2022-09-16T05:41:49.150Z,12.90
2022-09-16T05:44:16.476Z,13.10
2022-09-16T05:46:44.675Z,13.30
2022-09-16T05:49:11.183Z,13.40
2022-09-16T05:51:39.030Z,13.50
2022-09-16T05:54:06.277Z,13.40
2022-09-16T05:56:32.552Z,13.40
2022-09-16T05:59:00.654Z,13.40
2022-09-16T06:01:30.303Z,13.50
2022-09-16T06:03:57.739Z,13.90
2022-09-16T06:06:28.821Z,14.30
2022-09-16T06:08:58.726Z,14.30
2022-09-16T06:11:25.774Z,14.30
2022-09-16T06:13:55.669Z,14.40
2022-09-16T06:16:22.610Z,14.50
2022-09-16T06:18:49.654Z,14.70
2022-09-16T06:21:16.679Z,14.80
2022-09-16T06:23:43.984Z,14.90
2022-09-16T06:26:17.475Z,15.10
2022-09-16T06:28:43.774Z,15.20
2022-09-16T06:31:17.244Z,15.60
2022-09-16T06:33:44.570Z,15.80
2022-09-16T06:36:17.399Z,16.00
2022-09-16T06:38:45.571Z,15.90
2022-09-16T06:41:12.451Z,15.70
2022-09-16T06:43:39.883Z,16.10
2022-09-16T06:46:15.469Z,17.10
2022-09-16T06:48:43.825Z,17.80
2022-09-16T06:51:12.572Z,18.10
2022-09-16T06:53:40.065Z,19.20
2022-09-16T06:56:08.125Z,20.00
2022-09-16T06:58:36.020Z,20.30
2022-09-16T07:01:12.171Z,20.70
2022-09-16T07:03:41.026Z,19.40
2022-09-16T07:06:07.331Z,18.90
2022-09-16T07:08:35.352Z,19.00
2022-09-16T07:11:16.269Z,18.50
2022-09-16T07:13:44.468Z,18.10
2022-09-16T07:16:14.377Z,18.60
2022-09-16T07:18:42.054Z,18.70
2022-09-16T07:21:13.142Z,18.20
2022-09-16T07:23:39.805Z,17.60
2022-09-16T07:26:08.216Z,17.30
2022-09-16T07:28:35.848Z,17.20
2022-09-16T07:31:03.694Z,17.10
2022-09-16T07:33:31.427Z,17.10
2022-09-16T07:36:00.009Z,17.10
2022-09-16T07:38:28.913Z,17.60
2022-09-16T07:40:57.456Z,18.30
2022-09-16T07:43:25.341Z,18.20
2022-09-16T07:45:58.720Z,17.90
2022-09-16T07:48:25.899Z,17.50
2022-09-16T07:51:15.036Z,17.00
2022-09-16T07:53:41.447Z,16.90
2022-09-16T07:56:15.664Z,17.00
2022-09-16T07:58:43.857Z,17.50
2022-09-16T08:01:10.823Z,18.00
2022-09-16T08:03:38.708Z,18.80
2022-09-16T08:06:13.646Z,19.00
2022-09-16T08:08:40.729Z,18.50
2022-09-16T08:11:09.117Z,18.80
2022-09-16T08:13:36.498Z,18.80
2022-09-16T08:16:09.132Z,18.70
2022-09-16T08:18:35.486Z,18.70
2022-09-16T08:21:17.266Z,18.80
2022-09-16T08:23:44.511Z,18.70
2022-09-16T08:26:13.079Z,19.20
2022-09-16T08:28:57.478Z,20.50
2022-09-16T08:31:31.212Z,21.80
2022-09-16T08:33:58.587Z,21.40
2022-09-16T08:36:26.055Z,21.70
2022-09-16T08:38:55.136Z,22.10
2022-09-16T08:44:36.187Z,21.10
2022-09-16T08:47:06.083Z,21.20
2022-09-16T08:49:45.615Z,19.90
2022-09-16T08:52:46.160Z,19.60
2022-09-16T08:55:21.785Z,18.80
2022-09-16T08:58:05.369Z,18.60
2022-09-16T09:00:32.091Z,18.60
2022-09-16T09:03:37.215Z,18.00
2022-09-16T09:06:14.443Z,18.50
2022-09-16T09:10:51.750Z,20.00
2022-09-16T09:14:13.513Z,20.70
2022-09-16T09:20:06.611Z,21.30
2022-09-16T09:24:56.685Z,21.00
2022-09-16T09:27:39.937Z,21.10
2022-09-16T09:30:25.559Z,20.50
2022-09-16T09:33:46.090Z,19.50
2022-09-16T09:37:14.600Z,18.70
2022-09-16T09:43:29.551Z,18.10
2022-09-16T09:49:39.645Z,17.90
2022-09-16T09:52:12.338Z,17.60
2022-09-16T09:54:39.887Z,17.20
2022-09-16T09:57:56.288Z,16.70
2022-09-16T10:00:23.618Z,16.50
2022-09-16T10:02:51.103Z,16.20
2022-09-16T10:05:26.728Z,16.10
2022-09-16T10:09:28.213Z,16.40
2022-09-16T10:11:55.735Z,17.80
2022-09-16T10:14:34.644Z,18.20
2022-09-16T10:17:19.071Z,18.00
2022-09-16T10:20:08.683Z,17.60
2022-09-16T10:22:36.175Z,18.20
2022-09-16T10:25:06.242Z,18.80
2022-09-16T10:27:35.193Z,18.60
2022-09-16T10:30:20.998Z,19.20
2022-09-16T10:33:05.027Z,20.10
2022-09-16T10:35:34.256Z,20.10
2022-09-16T10:38:17.187Z,20.80
2022-09-16T10:41:00.525Z,20.40
2022-09-16T10:43:27.638Z,20.40
2022-09-16T10:45:53.970Z,20.90
2022-09-16T10:48:26.194Z,21.10
2022-09-16T10:50:58.269Z,21.50
2022-09-16T10:53:39.558Z,21.00
2022-09-16T10:56:29.295Z,21.40
2022-09-16T10:59:09.802Z,21.30
2022-09-16T11:01:56.231Z,20.70
2022-09-16T11:06:43.196Z,19.80
2022-09-16T11:10:43.347Z,18.90
2022-09-16T11:20:45.764Z,20.00
2022-09-16T11:25:04.973Z,19.30
2022-09-16T11:27:56.973Z,18.90
2022-09-16T11:30:24.437Z,18.30
2022-09-16T11:34:36.232Z,18.60
2022-09-16T11:40:48.645Z,18.30
2022-09-16T11:45:56.282Z,18.60
2022-09-16T11:52:11.472Z,19.20
2022-09-16T11:58:29.863Z,19.60
2022-09-16T12:00:58.782Z,18.60
2022-09-16T12:03:49.221Z,19.10
2022-09-16T12:06:19.173Z,19.20
2022-09-16T12:09:03.809Z,18.70
2022-09-16T12:11:46.237Z,18.50
2022-09-16T12:14:42.031Z,18.70
2022-09-16T12:17:21.759Z,18.70
2022-09-16T12:20:16.275Z,18.50
2022-09-16T12:22:55.182Z,18.20
2022-09-16T12:25:33.655Z,18.10
2022-09-16T12:28:26.033Z,18.80
2022-09-16T12:31:12.893Z,18.90
2022-09-16T12:33:46.766Z,18.70
2022-09-16T12:36:20.280Z,18.30
2022-09-16T12:38:50.477Z,18.00
2022-09-16T12:42:09.747Z,18.50
2022-09-16T12:47:56.773Z,19.00
2022-09-16T12:53:01.452Z,21.00
2022-09-16T12:55:46.020Z,21.50
2022-09-16T12:58:41.391Z,21.30
2022-09-16T13:01:25.984Z,21.60
2022-09-16T13:03:58.379Z,21.30
2022-09-16T13:06:35.803Z,21.00
2022-09-16T13:09:27.447Z,21.50
2022-09-16T13:15:00.681Z,21.20
2022-09-16T13:17:38.349Z,21.00
2022-09-16T13:20:33.594Z,20.80
2022-09-16T13:23:17.378Z,21.10
2022-09-16T13:26:09.614Z,20.90
2022-09-16T13:28:41.681Z,20.60
2022-09-16T13:31:29.595Z,20.70
2022-09-16T13:34:13.865Z,20.30
2022-09-16T13:36:40.446Z,20.40
2022-09-16T13:39:14.962Z,20.10
2022-09-16T13:41:45.376Z,19.70
2022-09-16T13:44:48.453Z,19.60
2022-09-16T13:47:16.844Z,19.30
2022-09-16T13:49:51.724Z,18.60
2022-09-16T13:52:36.196Z,18.20
2022-09-16T13:55:12.601Z,18.00
2022-09-16T13:57:57.937Z,17.60
2022-09-16T14:01:55.578Z,17.60
2022-09-16T14:05:03.716Z,17.80
2022-09-16T14:14:56.716Z,18.20
2022-09-16T14:17:25.247Z,17.70
2022-09-16T14:19:53.321Z,18.00
2022-09-16T14:22:25.496Z,18.50
2022-09-16T14:25:00.692Z,18.60
2022-09-16T14:27:36.024Z,18.60
2022-09-16T14:30:06.156Z,18.70
2022-09-16T14:32:36.862Z,18.60
2022-09-16T14:35:20.367Z,18.70
2022-09-16T14:37:48.096Z,18.80
2022-09-16T14:40:17.451Z,18.70
2022-09-16T14:42:58.147Z,18.60
2022-09-16T14:45:24.668Z,18.40
2022-09-16T14:47:52.583Z,20.10
2022-09-16T14:50:24.964Z,18.30
2022-09-16T14:52:59.401Z,18.30
2022-09-16T14:55:29.333Z,18.00
2022-09-16T14:57:55.789Z,18.00
2022-09-16T15:00:24.332Z,18.00
2022-09-16T15:03:01.276Z,17.90
2022-09-16T15:05:34.827Z,17.80
2022-09-16T15:09:07.183Z,17.60
2022-09-16T15:12:46.729Z,17.20
2022-09-16T15:16:00.961Z,17.10
2022-09-16T15:18:34.198Z,16.70
2022-09-16T15:21:27.564Z,16.30
2022-09-16T15:24:02.599Z,16.10
2022-09-16T15:26:30.841Z,15.80
2022-09-16T15:30:59.496Z,15.90
2022-09-16T15:33:34.519Z,16.10
2022-09-16T15:36:01.720Z,16.10
2022-09-16T15:38:28.387Z,16.10
2022-09-16T15:41:27.786Z,16.00
2022-09-16T15:43:55.059Z,15.90
2022-09-16T15:46:22.342Z,15.80
2022-09-16T15:48:57.834Z,15.80
2022-09-16T15:51:49.907Z,15.60
2022-09-16T15:54:27.498Z,15.60
2022-09-16T15:57:02.192Z,15.60
2022-09-16T15:59:39.381Z,15.60
2022-09-16T16:02:19.031Z,15.50
2022-09-16T16:04:46.388Z,15.50
2022-09-16T16:07:12.977Z,15.50
2022-09-16T16:09:42.561Z,15.40
2022-09-16T16:12:15.926Z,16.70
2022-09-16T16:14:43.161Z,15.30
2022-09-16T16:17:14.429Z,15.00
2022-09-16T16:19:42.408Z,15.20
2022-09-16T16:22:09.671Z,15.10
2022-09-16T16:24:36.350Z,15.00
2022-09-16T16:27:03.587Z,14.90
2022-09-16T16:29:29.878Z,14.80
2022-09-16T16:32:01.108Z,14.70
2022-09-16T16:34:29.743Z,14.70
2022-09-16T16:36:56.005Z,14.60
2022-09-16T16:39:23.755Z,14.50
2022-09-16T16:41:53.477Z,14.30
2022-09-16T16:44:22.213Z,14.10
2022-09-16T16:46:55.729Z,14.00
2022-09-16T16:49:22.423Z,13.80
2022-09-16T16:51:51.107Z,13.70
2022-09-16T16:54:19.157Z,13.50
2022-09-16T16:56:46.007Z,13.30
2022-09-16T16:59:12.642Z,13.20
2022-09-16T17:01:39.162Z,13.00
2022-09-16T17:04:05.592Z,12.80
2022-09-16T17:06:32.514Z,12.60
2022-09-16T17:08:59.610Z,12.50
2022-09-16T17:11:26.242Z,12.30
2022-09-16T17:13:53.366Z,12.20
2022-09-16T17:16:21.704Z,12.00
2022-09-16T17:18:48.279Z,11.90
2022-09-16T17:21:19.427Z,11.80
2022-09-16T17:23:46.286Z,11.70
2022-09-16T17:26:12.795Z,11.60
2022-09-16T17:28:40.483Z,11.40
2022-09-16T17:31:17.155Z,11.30
2022-09-16T17:33:44.282Z,11.30
2022-09-16T17:36:12.396Z,11.30
2022-09-16T17:38:38.988Z,11.20
2022-09-16T17:41:14.298Z,11.10
2022-09-16T17:43:41.078Z,11.10
2022-09-16T17:46:12.267Z,11.10
2022-09-16T17:48:39.469Z,11.10
2022-09-16T17:51:06.060Z,11.10
2022-09-16T17:53:32.944Z,11.10
2022-09-16T17:56:06.901Z,11.10
2022-09-16T17:58:33.632Z,11.20
2022-09-16T18:01:11.405Z,11.10
2022-09-16T18:03:37.988Z,11.10
2022-09-16T18:06:09.746Z,11.10
2022-09-16T18:08:37.090Z,11.00
2022-09-16T18:11:07.272Z,11.00
2022-09-16T18:13:33.886Z,10.90
2022-09-16T18:16:11.114Z,10.90
2022-09-16T18:18:39.342Z,10.80
2022-09-16T18:21:08.104Z,10.80
2022-09-16T18:23:36.245Z,10.70
2022-09-16T18:26:04.587Z,10.70
2022-09-16T18:28:35.766Z,10.60
2022-09-16T18:31:14.191Z,10.60
2022-09-16T18:33:41.715Z,10.60
2022-09-16T18:36:15.604Z,10.50
2022-09-16T18:38:45.211Z,9.80
2022-09-16T18:41:16.417Z,10.40
2022-09-16T18:43:44.632Z,10.30
2022-09-16T18:46:26.131Z,10.30
2022-09-16T18:48:53.643Z,10.20
2022-09-16T18:51:26.535Z,10.10
2022-09-16T18:53:57.227Z,10.10
2022-09-16T18:56:28.182Z,10.00
2022-09-16T18:59:20.393Z,9.90
2022-09-16T19:01:49.123Z,9.90
2022-09-16T19:04:17.973Z,9.80
2022-09-16T19:06:47.408Z,9.80
2022-09-16T19:09:16.952Z,9.80
2022-09-16T19:11:44.248Z,9.80
2022-09-16T19:14:18.210Z,9.80
2022-09-16T19:16:45.614Z,9.70
2022-09-16T19:19:14.590Z,9.70
2022-09-16T19:21:43.609Z,9.70
2022-09-16T19:24:24.036Z,9.70
2022-09-16T19:26:52.288Z,9.70
2022-09-16T19:29:28.270Z,9.70
2022-09-16T19:31:57.036Z,9.60
2022-09-16T19:34:28.269Z,9.70
2022-09-16T19:36:58.827Z,9.60
2022-09-16T19:39:26.545Z,9.60
2022-09-16T19:41:54.637Z,9.80
2022-09-16T19:44:21.188Z,9.90
2022-09-16T19:46:50.579Z,10.20
2022-09-16T19:49:23.377Z,10.30
2022-09-16T19:51:56.753Z,10.40
2022-09-16T19:54:25.126Z,10.30
2022-09-16T19:56:55.939Z,10.30
2022-09-16T19:59:28.631Z,10.20
2022-09-16T20:01:58.418Z,10.20
2022-09-16T20:04:26.969Z,12.20
2022-09-16T20:06:53.513Z,10.30
2022-09-16T20:09:26.729Z,10.40
2022-09-16T20:11:55.827Z,10.50
2022-09-16T20:14:23.798Z,10.50
2022-09-16T20:16:52.027Z,10.60
2022-09-16T20:19:21.102Z,12.30
2022-09-16T20:21:48.489Z,10.80
2022-09-16T20:24:18.191Z,10.90
2022-09-16T20:26:55.437Z,10.90
2022-09-16T20:29:23.125Z,11.00
2022-09-16T20:31:52.809Z,10.90
2022-09-16T20:34:19.802Z,10.80
2022-09-16T20:36:47.723Z,10.80
2022-09-16T20:39:14.773Z,10.90
2022-09-16T20:41:41.653Z,10.90
2022-09-16T20:44:15.000Z,10.80
2022-09-16T20:46:42.288Z,10.80
2022-09-16T20:49:14.140Z,10.60
2022-09-16T20:51:41.088Z,10.50
2022-09-16T20:54:10.066Z,10.40
2022-09-16T20:56:41.553Z,10.20
2022-09-16T20:59:09.172Z,10.10
2022-09-16T21:01:36.421Z,10.00
2022-09-16T21:04:05.012Z,9.90
2022-09-16T21:06:32.560Z,11.30
2022-09-16T21:09:00.107Z,9.50
2022-09-16T21:11:31.798Z,9.40
2022-09-16T21:14:06.079Z,9.30
2022-09-16T21:16:32.827Z,9.10
2022-09-16T21:19:00.462Z,9.00
2022-09-16T21:21:28.075Z,9.00
2022-09-16T21:23:55.831Z,8.90
2022-09-16T21:26:24.509Z,8.80
2022-09-16T21:28:58.242Z,8.80
2022-09-16T21:31:26.668Z,8.70
2022-09-16T21:33:53.471Z,8.80
2022-09-16T21:36:22.913Z,8.70
2022-09-16T21:38:50.064Z,8.60
2022-09-16T21:41:18.783Z,8.60
2022-09-16T21:43:56.399Z,8.60
2022-09-16T21:46:30.819Z,8.50
2022-09-16T21:49:00.489Z,8.40
2022-09-16T21:51:27.624Z,8.30
2022-09-16T21:53:54.927Z,8.30
2022-09-16T21:56:22.033Z,8.30
2022-09-16T21:58:49.460Z,8.30
2022-09-16T22:01:27.366Z,8.30
2022-09-16T22:04:01.517Z,8.20
2022-09-16T22:06:28.032Z,8.20
2022-09-16T22:08:56.412Z,8.20
2022-09-16T22:11:25.603Z,8.20
2022-09-16T22:13:53.235Z,8.10
2022-09-16T22:16:27.592Z,8.10
2022-09-16T22:19:27.539Z,8.10
2022-09-16T22:21:54.111Z,8.20
2022-09-16T22:24:20.868Z,8.40
2022-09-16T22:26:48.323Z,8.60
2022-09-16T22:29:14.655Z,8.70
2022-09-16T22:31:41.280Z,8.80
2022-09-16T22:34:08.550Z,8.80
2022-09-16T22:36:36.202Z,8.70
2022-09-16T22:39:05.685Z,8.70
2022-09-16T22:41:33.128Z,8.70
2022-09-16T22:43:59.808Z,8.90
2022-09-16T22:46:30.717Z,9.00
2022-09-16T22:48:58.196Z,9.00
2022-09-16T22:51:24.627Z,8.90
2022-09-16T22:53:51.358Z,8.80
2022-09-16T22:56:19.252Z,8.80
2022-09-16T22:58:45.767Z,8.70
2022-09-16T23:01:19.313Z,8.70
2022-09-16T23:03:45.866Z,8.70
2022-09-16T23:06:13.693Z,8.60
2022-09-16T23:08:41.276Z,8.60
2022-09-16T23:11:10.553Z,8.50
2022-09-16T23:13:41.461Z,8.50
2022-09-16T23:16:15.428Z,8.40
2022-09-16T23:18:42.551Z,8.30
2022-09-16T23:21:15.188Z,8.30
2022-09-16T23:23:42.688Z,8.20
2022-09-16T23:26:10.796Z,8.20
2022-09-16T23:28:37.154Z,8.20
2022-09-16T23:31:11.064Z,8.20
2022-09-16T23:33:37.724Z,8.10
2022-09-16T23:36:04.950Z,8.00
2022-09-16T23:38:32.459Z,8.10
2022-09-16T23:41:07.501Z,8.10
2022-09-16T23:43:33.890Z,8.10
2022-09-16T23:46:01.538Z,8.20
2022-09-16T23:48:28.968Z,8.20
2022-09-16T23:50:55.325Z,8.10
2022-09-16T23:53:22.061Z,8.10
2022-09-16T23:55:48.443Z,8.10
2022-09-16T23:58:15.334Z,8.10
